KVNYKPMD

Guest
Details From KVNY - Van Nuys
To KPMD - Palmdale Rgnl Usaf Plt 42
Flight Number -
Tags Generated
Created
Modified
Stats Distance 31 nm / 58 km
Max Altitude 0 ft / 0 m
Waypoints 2
Social Downloads 1
Likes 0
Share VATSIM

Download

Looking for another format? Having issues loading an existing format? Contact us
Advertisement - Login to hide

Notes

Generated

Route

KVNY KPMD

ID Type Via Altitude Latitude Longitude Leg Dist Tot Dist Heading (true) Name
O KVNY APT - 0 ft / 0 m 34.21899˚ -118.49000˚ - 0 nm - -
O KPMD APT - 0 ft / 0 m 34.62842˚ -118.09449˚ 31 nm 31 nm 38° / 39° -

Altitude Profile

Advertisement - Login to hide

KVNY

Details ICAO KVNY (VNY)
Name Van Nuys
Region United States
Timezone America/Los_Angeles (UTC-7.0)
Stats Elevation 802 ft / 244 m (AMSL)
Location 34.210723° -118.489841°
Runways 2
Magnetic Variation 12.037° E

METAR

KVNY 201551Z 12005KT 7SM FEW015 OVC029 17/12 A2993 RMK AO2 SLP131 T01720122

Decode

TAF

KVNY 201204Z 2012/2112 VRB03KT P6SM OVC020 FM201400 VRB03KT P6SM OVC025 FM202000 14008KT P6SM BKN025 FM202300 14008KT P6SM SCT025 FM210400 12006KT P6SM SCT015 OVC025

Decode

Departure Runways

ID Width Length Bearing (true) Bearing (mag) Surface Threshold Offset Overrun Length
16L 75 ft / 23 m 4,021 ft / 1,226 m 175.53° 163.49° Asphalt 1,430 ft / 436 m 0 ft / 0 m
16R 151 ft / 46 m 8,022 ft / 2,445 m 175.54° 163.50° Asphalt 1,430 ft / 436 m 151 ft / 46 m
34L 151 ft / 46 m 8,022 ft / 2,445 m 355.54° 343.50° Asphalt 0 ft / 0 m 151 ft / 46 m
34R 75 ft / 23 m 4,021 ft / 1,226 m 355.53° 343.49° Asphalt 0 ft / 0 m 0 ft / 0 m

KPMD

Details ICAO KPMD (PMD)
Name PALMDALE RGNL USAF PLT 42
Region United States
Timezone America/Los_Angeles (UTC-7.0)
Stats Elevation 2,543 ft / 775 m (AMSL)
Location 34.629387° -118.084551°
Runways 2
Magnetic Variation 12.036° E

METAR

KPMD 201553Z AUTO VRB04KT 10SM CLR 20/06 A2990 RMK AO2 SLP105 T02000061

Decode

TAF

KPMD 201121Z 2012/2112 22008KT P6SM BKN250 FM201500 VRB03KT P6SM SCT250 FM201800 25012KT P6SM SCT250 FM202100 25018G28KT P6SM SKC FM210200 24014KT P6SM SKC

Decode

Destination Runways

ID Width Length Bearing (true) Bearing (mag) Surface Threshold Offset Overrun Length
04 150 ft / 46 m 11,998 ft / 3,657 m 51.67° 39.63° Concrete 0 ft / 0 m 1,000 ft / 305 m
07 150 ft / 46 m 11,974 ft / 3,650 m 86.16° 74.12° Concrete 0 ft / 0 m 1,000 ft / 305 m
22 150 ft / 46 m 11,998 ft / 3,657 m 231.69° 219.65° Concrete 0 ft / 0 m 1,000 ft / 305 m
25 150 ft / 46 m 11,974 ft / 3,650 m 266.19° 254.15° Concrete 0 ft / 0 m 998 ft / 304 m

Approach Navaids

Runway Type Ident Frequency Range Bearing (true) Bearing (mag) Slope Elevation
25 Localiser IPMD 110.70 MHz 18 nm / 33 km 266.16° 254.12° - 2,543 ft / 775 m (AMSL)
25 Glidescope IPMD 110.70 MHz 10 nm / 19 km 266.18° 254.14° 3.00° 2,543 ft / 775 m (AMSL)